createdAt,value
2023-02-23T00:00:28.391Z,10.45
2023-02-23T00:03:15.283Z,11.02
2023-02-23T00:06:03.649Z,11.23
2023-02-23T00:08:52.326Z,12.02
2023-02-23T00:11:39.213Z,11.00
2023-02-23T00:14:28.990Z,11.80
2023-02-23T00:17:18.395Z,11.55
2023-02-23T00:20:12.849Z,9.80
2023-02-23T00:22:59.701Z,9.40
2023-02-23T00:25:46.769Z,8.60
2023-02-23T00:28:33.990Z,8.13
2023-02-23T00:31:25.686Z,6.97
2023-02-23T00:34:15.016Z,6.68
2023-02-23T00:37:01.846Z,6.18
2023-02-23T00:39:49.347Z,6.88
2023-02-23T00:42:36.148Z,6.97
2023-02-23T00:45:22.964Z,7.03
2023-02-23T00:48:10.930Z,6.47
2023-02-23T00:50:59.959Z,5.38
2023-02-23T00:53:46.815Z,4.72
2023-02-23T00:56:33.876Z,4.70
2023-02-23T00:59:20.778Z,5.50
2023-02-23T01:02:07.619Z,6.10
2023-02-23T01:04:54.463Z,5.78
2023-02-23T01:07:41.432Z,6.00
2023-02-23T01:10:28.271Z,6.60
2023-02-23T01:13:15.158Z,6.72
2023-02-23T01:16:05.574Z,6.90
2023-02-23T01:18:52.587Z,7.18
2023-02-23T01:21:42.273Z,7.75
2023-02-23T01:24:29.427Z,7.07
2023-02-23T01:27:16.322Z,7.82
2023-02-23T01:30:03.329Z,8.10
2023-02-23T01:32:51.004Z,8.50
2023-02-23T01:35:37.796Z,8.15
2023-02-23T01:38:24.614Z,8.75
2023-02-23T01:41:11.427Z,8.90
2023-02-23T01:44:05.482Z,8.73
2023-02-23T01:46:53.381Z,8.55
2023-02-23T01:52:27.572Z,8.05
2023-02-23T01:55:23.015Z,9.32
2023-02-23T01:58:19.680Z,9.27
2023-02-23T02:01:07.933Z,9.77
2023-02-23T02:04:06.682Z,9.55
2023-02-23T02:06:56.668Z,10.27
2023-02-23T02:10:04.955Z,10.23
2023-02-23T02:12:56.706Z,10.55
2023-02-23T02:16:28.981Z,9.23
2023-02-23T02:19:27.892Z,9.20
2023-02-23T02:22:38.682Z,9.18
2023-02-23T02:25:44.446Z,8.60
2023-02-23T02:29:00.957Z,8.52
2023-02-23T02:32:04.505Z,8.40
2023-02-23T02:35:22.475Z,10.90
2023-02-23T02:38:12.351Z,10.88
2023-02-23T02:41:25.352Z,11.27
2023-02-23T02:44:17.827Z,10.57
2023-02-23T02:47:16.791Z,11.10
2023-02-23T02:50:46.943Z,10.48
2023-02-23T02:56:40.517Z,9.50
2023-02-23T02:59:46.437Z,11.25
2023-02-23T03:02:54.641Z,11.52
2023-02-23T03:06:07.799Z,11.60
2023-02-23T03:09:39.873Z,11.10
2023-02-23T03:12:52.472Z,10.93
2023-02-23T03:16:12.053Z,10.52
2023-02-23T03:19:42.844Z,10.07
2023-02-23T03:23:04.932Z,9.50
2023-02-23T03:26:13.092Z,10.25
2023-02-23T03:29:21.880Z,8.82
2023-02-23T03:32:36.884Z,9.25
2023-02-23T03:36:01.397Z,9.35
2023-02-23T03:39:12.788Z,9.25
2023-02-23T03:42:22.880Z,9.50
2023-02-23T03:45:36.569Z,9.38
2023-02-23T03:48:44.829Z,8.77
2023-02-23T03:51:54.204Z,8.23
2023-02-23T03:55:13.073Z,8.02
2023-02-23T03:58:21.283Z,8.75
2023-02-23T04:01:30.299Z,8.88
2023-02-23T04:07:42.699Z,7.20
2023-02-23T04:10:49.789Z,6.93
2023-02-23T04:13:38.903Z,7.15
2023-02-23T04:16:25.785Z,6.88
2023-02-23T04:19:12.827Z,6.80
2023-02-23T04:21:59.601Z,8.18
2023-02-23T04:24:46.970Z,8.02
2023-02-23T04:27:33.745Z,9.15
2023-02-23T04:30:20.797Z,10.15
2023-02-23T04:33:08.038Z,10.02
2023-02-23T04:35:55.478Z,11.02
2023-02-23T04:38:42.268Z,11.18
2023-02-23T04:41:29.115Z,10.68
2023-02-23T04:44:16.511Z,9.85
2023-02-23T04:47:04.045Z,8.27
2023-02-23T04:49:50.855Z,8.77
2023-02-23T04:52:39.001Z,7.97
2023-02-23T04:55:26.593Z,8.32
2023-02-23T04:58:13.858Z,9.13
2023-02-23T05:01:09.669Z,9.25
2023-02-23T05:03:56.684Z,10.55
2023-02-23T05:06:43.571Z,12.73
2023-02-23T05:09:31.698Z,12.13
2023-02-23T05:12:18.460Z,13.18
2023-02-23T05:15:05.941Z,13.65
2023-02-23T05:17:54.021Z,14.50
2023-02-23T05:20:47.731Z,15.95
2023-02-23T05:23:36.119Z,13.95
2023-02-23T05:26:23.643Z,13.23
2023-02-23T05:29:10.696Z,12.52
2023-02-23T05:31:57.534Z,11.82
2023-02-23T05:34:44.409Z,13.10
2023-02-23T05:37:31.235Z,13.27
2023-02-23T05:40:18.307Z,14.73
2023-02-23T05:43:05.298Z,17.70
2023-02-23T05:45:52.163Z,18.47
2023-02-23T05:48:38.983Z,20.60
2023-02-23T05:51:27.086Z,18.85
2023-02-23T05:54:14.101Z,18.02
2023-02-23T05:57:01.870Z,17.10
2023-02-23T06:02:36.582Z,13.32
2023-02-23T06:05:23.458Z,14.05
2023-02-23T06:08:10.347Z,16.17
2023-02-23T06:10:57.172Z,17.03
2023-02-23T06:13:43.983Z,15.05
2023-02-23T06:16:30.845Z,16.15
2023-02-23T06:19:17.836Z,13.80
2023-02-23T06:22:04.630Z,13.47
2023-02-23T06:24:51.466Z,12.43
2023-02-23T06:27:42.130Z,12.20
2023-02-23T06:30:29.730Z,10.90
2023-02-23T06:33:16.542Z,10.20
2023-02-23T06:36:03.571Z,9.80
2023-02-23T06:38:50.432Z,10.52
2023-02-23T06:41:37.651Z,10.90
2023-02-23T06:44:24.600Z,10.23
2023-02-23T06:47:11.464Z,10.13
2023-02-23T06:49:59.952Z,11.25
2023-02-23T06:52:46.933Z,9.65
2023-02-23T06:55:33.821Z,9.47
2023-02-23T06:58:20.712Z,10.77
2023-02-23T07:01:07.503Z,9.30
2023-02-23T07:03:54.448Z,9.85
2023-02-23T07:06:41.285Z,9.77
2023-02-23T07:09:30.402Z,10.07
2023-02-23T07:12:17.537Z,9.88
2023-02-23T07:15:04.964Z,17.55
2023-02-23T07:17:52.854Z,11.00
2023-02-23T07:20:39.736Z,9.75
2023-02-23T07:23:26.506Z,9.17
2023-02-23T07:26:15.929Z,9.32
2023-02-23T07:29:03.471Z,9.00
2023-02-23T07:31:51.084Z,9.07
2023-02-23T07:34:37.989Z,9.48
2023-02-23T07:37:24.883Z,10.97
2023-02-23T07:40:12.457Z,10.18
2023-02-23T07:45:47.000Z,10.30
2023-02-23T07:48:33.964Z,10.95
2023-02-23T07:51:21.377Z,11.47
2023-02-23T07:54:08.432Z,11.68
2023-02-23T07:56:55.365Z,12.57
2023-02-23T07:59:42.258Z,11.80
2023-02-23T08:02:29.199Z,10.87
2023-02-23T08:05:16.568Z,10.23
2023-02-23T08:08:03.512Z,8.82
2023-02-23T08:10:50.531Z,11.37
2023-02-23T08:13:37.957Z,11.63
2023-02-23T08:16:24.824Z,10.82
2023-02-23T08:19:11.690Z,12.23
2023-02-23T08:21:58.510Z,12.05
2023-02-23T08:24:45.348Z,12.13
2023-02-23T08:27:37.602Z,11.93
2023-02-23T08:30:24.822Z,11.73
2023-02-23T08:33:11.702Z,11.10
2023-02-23T08:35:59.659Z,11.45
2023-02-23T08:38:46.773Z,13.23
2023-02-23T08:41:36.771Z,14.48
2023-02-23T08:44:23.708Z,14.30
2023-02-23T08:47:10.498Z,18.17
2023-02-23T08:49:57.318Z,14.65
2023-02-23T08:52:44.187Z,20.38
2023-02-23T08:55:31.458Z,21.77
2023-02-23T08:58:18.280Z,18.35
2023-02-23T09:01:06.031Z,16.20
2023-02-23T09:03:52.865Z,16.25
2023-02-23T09:06:40.987Z,16.48
2023-02-23T09:09:27.911Z,15.68
2023-02-23T09:12:14.731Z,15.40
2023-02-23T09:15:02.323Z,15.27
2023-02-23T09:17:49.264Z,14.60
2023-02-23T09:20:36.520Z,13.90
2023-02-23T09:23:24.287Z,13.60
2023-02-23T09:26:11.315Z,14.40
2023-02-23T09:29:00.910Z,14.47
2023-02-23T09:31:47.785Z,13.50
2023-02-23T09:34:37.058Z,12.57
2023-02-23T09:37:25.183Z,14.60
2023-02-23T09:40:23.132Z,15.30
2023-02-23T09:43:21.714Z,14.60
2023-02-23T09:46:34.946Z,14.55
2023-02-23T09:49:25.353Z,14.32
2023-02-23T09:52:20.274Z,14.27
2023-02-23T09:55:09.887Z,14.93
2023-02-23T09:58:04.872Z,14.25
2023-02-23T10:01:09.856Z,14.75
2023-02-23T10:04:22.399Z,14.48
2023-02-23T10:07:24.261Z,13.93
2023-02-23T10:10:25.702Z,13.13
2023-02-23T10:13:40.039Z,13.85
2023-02-23T10:16:55.134Z,13.15
2023-02-23T10:20:00.986Z,13.27
2023-02-23T10:22:49.544Z,12.90
2023-02-23T10:25:41.556Z,11.88
2023-02-23T10:28:33.372Z,11.45
2023-02-23T10:31:32.137Z,12.18
2023-02-23T10:34:19.202Z,11.30
2023-02-23T10:37:07.056Z,11.23
2023-02-23T10:42:40.695Z,11.38
2023-02-23T10:45:29.744Z,10.82
2023-02-23T10:48:18.488Z,11.18
2023-02-23T10:51:07.551Z,10.30
2023-02-23T10:53:54.548Z,10.25
2023-02-23T10:56:46.454Z,10.27
2023-02-23T10:59:33.747Z,9.50
2023-02-23T11:02:25.850Z,11.32
2023-02-23T11:05:32.721Z,11.95
2023-02-23T11:08:21.379Z,12.13
2023-02-23T11:11:28.817Z,11.25
2023-02-23T11:14:17.597Z,10.85
2023-02-23T11:17:04.515Z,9.13
2023-02-23T11:19:51.502Z,9.33
2023-02-23T11:22:42.475Z,8.13
2023-02-23T11:25:31.763Z,8.32
2023-02-23T11:28:24.409Z,7.65
2023-02-23T11:31:23.449Z,7.22
2023-02-23T11:34:29.526Z,7.28
2023-02-23T11:37:23.414Z,6.97
2023-02-23T11:40:19.444Z,6.88
2023-02-23T11:43:07.903Z,8.88
2023-02-23T11:45:58.453Z,9.25
2023-02-23T11:49:10.018Z,9.20
2023-02-23T11:51:59.443Z,8.70
2023-02-23T11:55:08.066Z,8.50
2023-02-23T11:58:20.496Z,8.13
2023-02-23T12:01:12.492Z,8.30
2023-02-23T12:03:59.479Z,8.27
2023-02-23T12:06:46.422Z,8.60
2023-02-23T12:09:34.966Z,8.83
2023-02-23T12:12:26.965Z,8.25
2023-02-23T12:15:51.788Z,9.32
2023-02-23T12:19:08.926Z,9.57
2023-02-23T12:22:02.333Z,8.88
2023-02-23T12:25:10.770Z,9.52
2023-02-23T12:28:29.586Z,9.73
2023-02-23T12:31:25.496Z,8.70
2023-02-23T12:34:17.926Z,8.13
2023-02-23T12:37:20.212Z,9.50
2023-02-23T12:40:19.226Z,10.30
2023-02-23T12:43:27.116Z,9.10
2023-02-23T12:46:24.794Z,8.43
2023-02-23T12:49:35.464Z,8.90
2023-02-23T12:52:36.827Z,8.70
2023-02-23T12:55:42.141Z,9.48
2023-02-23T12:58:34.733Z,8.43
2023-02-23T13:01:31.017Z,7.75
2023-02-23T13:04:29.895Z,7.13
2023-02-23T13:07:34.981Z,6.68
2023-02-23T13:10:35.396Z,7.28
2023-02-23T13:13:32.559Z,6.82
2023-02-23T13:16:34.103Z,6.93
2023-02-23T13:19:46.451Z,7.25
2023-02-23T13:22:51.658Z,6.90
2023-02-23T13:25:58.114Z,6.78
2023-02-23T13:29:05.834Z,6.88
2023-02-23T13:31:53.662Z,7.68
2023-02-23T13:34:52.456Z,8.65
2023-02-23T13:37:41.320Z,8.80
2023-02-23T13:40:54.663Z,9.80
2023-02-23T13:43:54.333Z,8.52
2023-02-23T13:47:01.369Z,8.35
2023-02-23T13:49:56.838Z,8.20
2023-02-23T13:52:46.353Z,7.20
2023-02-23T13:55:48.256Z,7.03
2023-02-23T13:58:37.145Z,5.70
2023-02-23T14:01:32.828Z,5.80
2023-02-23T14:04:42.600Z,6.00
2023-02-23T14:07:32.334Z,6.47
2023-02-23T14:10:28.836Z,5.70
2023-02-23T14:13:15.916Z,5.30
2023-02-23T14:16:14.518Z,4.88
2023-02-23T14:19:06.609Z,4.55
2023-02-23T14:22:15.871Z,4.10
2023-02-23T14:25:33.792Z,3.90
2023-02-23T14:28:31.144Z,3.85
2023-02-23T14:31:21.326Z,4.18
2023-02-23T14:34:12.936Z,4.32
2023-02-23T14:37:15.584Z,4.38
2023-02-23T14:40:15.021Z,4.47
2023-02-23T14:43:04.110Z,4.45
2023-02-23T14:45:55.283Z,3.97
2023-02-23T14:48:45.850Z,3.50
2023-02-23T14:51:44.985Z,3.85
2023-02-23T14:54:39.464Z,3.88
2023-02-23T14:57:26.565Z,3.88
2023-02-23T15:00:24.003Z,4.25
2023-02-23T15:03:13.604Z,4.37
2023-02-23T15:06:01.152Z,4.78
2023-02-23T15:08:48.052Z,4.45
2023-02-23T15:11:37.154Z,4.72
2023-02-23T15:14:28.278Z,4.32
2023-02-23T15:17:21.365Z,4.60
2023-02-23T15:23:21.435Z,3.80
2023-02-23T15:26:24.268Z,4.30
2023-02-23T15:29:13.652Z,4.10
2023-02-23T15:32:22.423Z,3.85
2023-02-23T15:38:11.387Z,4.05
2023-02-23T15:41:09.282Z,3.92
2023-02-23T15:44:06.403Z,3.70
2023-02-23T15:46:58.663Z,3.33
2023-02-23T15:49:45.514Z,3.60
2023-02-23T15:52:35.217Z,3.35
2023-02-23T15:55:35.505Z,3.72
2023-02-23T15:58:26.897Z,4.30
2023-02-23T16:01:25.032Z,4.05
2023-02-23T16:04:14.968Z,4.72
2023-02-23T16:07:22.041Z,5.43
2023-02-23T16:10:28.635Z,5.25
2023-02-23T16:13:20.444Z,5.28
2023-02-23T16:16:11.732Z,4.95
2023-02-23T16:19:01.801Z,4.95
2023-02-23T16:21:55.574Z,4.55
2023-02-23T16:24:42.463Z,4.80
2023-02-23T16:27:30.565Z,4.30
2023-02-23T16:30:34.320Z,4.80
2023-02-23T16:33:26.403Z,4.43
2023-02-23T16:36:25.189Z,4.65
2023-02-23T16:39:13.861Z,5.03
2023-02-23T16:42:00.860Z,5.25
2023-02-23T16:44:47.762Z,5.33
2023-02-23T16:47:48.388Z,5.80
2023-02-23T16:50:37.609Z,5.30
2023-02-23T16:53:25.351Z,5.72
2023-02-23T16:56:15.050Z,5.30
2023-02-23T16:59:03.882Z,5.05
2023-02-23T17:01:50.874Z,5.28
2023-02-23T17:04:37.771Z,4.80
2023-02-23T17:07:24.773Z,4.78
2023-02-23T17:10:25.117Z,5.05
2023-02-23T17:13:28.905Z,4.78
2023-02-23T17:16:16.273Z,4.50
2023-02-23T17:19:03.147Z,4.15
2023-02-23T17:21:50.561Z,4.50
2023-02-23T17:24:37.396Z,4.50
2023-02-23T17:27:24.867Z,6.10
2023-02-23T17:30:12.975Z,4.75
2023-02-23T17:33:01.086Z,4.80
2023-02-23T17:35:48.148Z,4.40
2023-02-23T17:38:35.151Z,4.20
2023-02-23T17:41:22.525Z,3.80
2023-02-23T17:44:10.119Z,3.65
2023-02-23T17:46:56.996Z,3.30
2023-02-23T17:49:43.820Z,3.60
2023-02-23T17:52:30.800Z,3.90
2023-02-23T17:55:21.194Z,3.47
2023-02-23T17:58:08.231Z,4.05
2023-02-23T18:01:00.428Z,4.40
2023-02-23T18:03:48.038Z,5.63
2023-02-23T18:06:34.921Z,8.07
2023-02-23T18:09:21.767Z,11.17
2023-02-23T18:12:08.943Z,11.25
2023-02-23T18:14:55.901Z,7.03
2023-02-23T18:17:42.792Z,4.37
2023-02-23T18:20:30.359Z,4.03
2023-02-23T18:23:17.699Z,5.05
2023-02-23T18:26:10.649Z,4.43
2023-02-23T18:28:57.888Z,4.13
2023-02-23T18:31:45.592Z,5.05
2023-02-23T18:34:32.618Z,4.10
2023-02-23T18:37:25.329Z,4.10
2023-02-23T18:40:21.427Z,3.72
2023-02-23T18:43:09.053Z,4.13
2023-02-23T18:45:55.993Z,3.47
2023-02-23T18:48:43.731Z,3.65
2023-02-23T18:51:30.580Z,3.70
2023-02-23T18:54:18.958Z,3.27
2023-02-23T18:57:05.898Z,3.00
2023-02-23T18:59:52.848Z,3.47
2023-02-23T19:02:43.915Z,3.83
2023-02-23T19:05:30.841Z,6.15
2023-02-23T19:08:17.677Z,7.50
2023-02-23T19:11:05.205Z,5.70
2023-02-23T19:13:53.437Z,6.63
2023-02-23T19:16:41.235Z,5.70
2023-02-23T19:19:28.212Z,5.50
2023-02-23T19:22:15.061Z,4.43
2023-02-23T19:25:02.024Z,3.50
2023-02-23T19:27:48.866Z,3.57
2023-02-23T19:30:35.758Z,3.37
2023-02-23T19:33:22.849Z,3.30
2023-02-23T19:36:12.434Z,4.65
2023-02-23T19:39:06.130Z,6.97
2023-02-23T19:41:53.144Z,10.50
2023-02-23T19:44:39.969Z,13.88
2023-02-23T19:47:26.834Z,13.03
2023-02-23T19:50:19.001Z,15.05
2023-02-23T19:53:05.916Z,15.00
2023-02-23T19:56:04.812Z,11.60
2023-02-23T19:58:52.263Z,8.93
2023-02-23T20:01:39.329Z,7.88
2023-02-23T20:04:27.081Z,6.22
2023-02-23T20:07:14.514Z,6.55
2023-02-23T20:10:05.559Z,7.28
2023-02-23T20:12:53.478Z,7.43
2023-02-23T20:15:40.312Z,6.50
2023-02-23T20:18:28.565Z,6.80
2023-02-23T20:21:23.117Z,6.60
2023-02-23T20:24:10.849Z,5.53
2023-02-23T20:26:59.310Z,4.82
2023-02-23T20:29:47.834Z,4.07
2023-02-23T20:32:34.858Z,3.92
2023-02-23T20:35:26.254Z,3.60
2023-02-23T20:38:14.180Z,3.47
2023-02-23T20:43:51.607Z,3.88
2023-02-23T20:46:40.134Z,4.38
2023-02-23T20:49:27.625Z,10.25
2023-02-23T20:52:14.492Z,9.95
2023-02-23T20:55:01.331Z,6.40
2023-02-23T20:57:48.500Z,6.50
2023-02-23T21:00:35.515Z,10.25
2023-02-23T21:03:22.704Z,10.73
2023-02-23T21:06:09.912Z,7.72
2023-02-23T21:09:02.795Z,7.10
2023-02-23T21:11:49.705Z,5.13
2023-02-23T21:14:36.941Z,4.57
2023-02-23T21:17:23.790Z,5.10
2023-02-23T21:20:14.009Z,5.00
2023-02-23T21:23:00.917Z,5.60
2023-02-23T21:25:49.011Z,6.63
2023-02-23T21:28:38.384Z,7.68
2023-02-23T21:31:25.977Z,7.25
2023-02-23T21:34:15.581Z,4.55
2023-02-23T21:37:02.817Z,4.55
2023-02-23T21:39:50.208Z,3.72
2023-02-23T21:42:38.883Z,3.30
2023-02-23T21:45:25.688Z,3.22
2023-02-23T21:48:16.771Z,4.95
2023-02-23T21:51:23.264Z,4.35
2023-02-23T21:54:30.316Z,3.88
2023-02-23T21:57:22.708Z,3.15
2023-02-23T22:00:21.050Z,3.35
2023-02-23T22:06:01.153Z,3.88
2023-02-23T22:08:51.609Z,3.72
2023-02-23T22:11:43.526Z,3.35
2023-02-23T22:14:36.363Z,3.42
2023-02-23T22:17:28.158Z,3.65
2023-02-23T22:20:20.470Z,4.15
2023-02-23T22:23:08.638Z,3.70
2023-02-23T22:25:58.726Z,3.22
2023-02-23T22:28:45.679Z,3.70
2023-02-23T22:31:32.921Z,3.73
2023-02-23T22:34:22.501Z,3.97
2023-02-23T22:37:09.347Z,3.50
2023-02-23T22:40:12.474Z,3.60
2023-02-23T22:43:02.159Z,3.70
2023-02-23T22:45:55.964Z,3.25
2023-02-23T22:48:45.868Z,3.35
2023-02-23T22:51:33.052Z,3.15
2023-02-23T22:54:23.770Z,3.58
2023-02-23T22:57:12.575Z,3.42
2023-02-23T23:00:11.966Z,4.28
2023-02-23T23:02:59.260Z,4.07
2023-02-23T23:05:51.310Z,4.05
2023-02-23T23:08:41.328Z,3.30
2023-02-23T23:11:29.948Z,3.50
2023-02-23T23:14:24.189Z,3.38
2023-02-23T23:17:14.484Z,4.40
2023-02-23T23:20:01.504Z,3.30
2023-02-23T23:22:50.007Z,4.03
2023-02-23T23:25:43.892Z,3.47
2023-02-23T23:28:42.361Z,3.58
2023-02-23T23:31:36.426Z,3.88
2023-02-23T23:34:25.820Z,3.35
2023-02-23T23:37:21.458Z,3.70
2023-02-23T23:40:18.952Z,4.68
2023-02-23T23:43:08.113Z,4.90
2023-02-23T23:45:56.527Z,4.35
2023-02-23T23:48:52.163Z,4.10
2023-02-23T23:51:44.837Z,4.05
2023-02-23T23:54:37.609Z,4.18
2023-02-23T23:57:26.948Z,6.22
